Time;durP1;ratioP1;P1;durP2;ratioP2;P2;SDS_P1;SDS_P2;PMS_P1;PMS_P2;Temp;Humidity;BMP_temperature;BMP_pressure;BME280_temperature;BME280_humidity;BME280_pressure;Samples;Min_cycle;Max_cycle;Signal;HPM_P1;HPM_P2
2023/12/12 00:00:42;;;;;;;14.97;10.37;;;7.70;99.90;;;;;;4969410;28;20480;-64
2023/12/12 00:03:10;;;;;;;12.90;9.30;;;7.70;99.90;;;;;;4962016;28;20489;-64
2023/12/12 00:05:38;;;;;;;15.07;9.67;;;7.70;99.90;;;;;;4967271;28;20497;-64
2023/12/12 00:08:06;;;;;;;16.03;9.47;;;7.70;99.90;;;;;;4969778;28;20942;-64
2023/12/12 00:10:35;;;;;;;14.40;9.00;;;7.60;99.90;;;;;;4967956;28;20533;-64
2023/12/12 00:13:03;;;;;;;15.27;9.63;;;7.60;99.90;;;;;;4967865;28;20893;-64
2023/12/12 00:15:31;;;;;;;15.73;10.30;;;7.60;99.90;;;;;;4964833;28;20502;-64
2023/12/12 00:18:00;;;;;;;13.90;9.23;;;7.50;99.90;;;;;;4968644;28;20890;-64
2023/12/12 00:20:28;;;;;;;15.73;9.90;;;7.50;99.90;;;;;;4967781;28;20477;-64
2023/12/12 00:22:56;;;;;;;14.50;8.93;;;7.50;99.90;;;;;;4966154;28;20479;-62
2023/12/12 00:25:24;;;;;;;11.70;8.03;;;7.50;99.90;;;;;;4967971;28;20518;-64
2023/12/12 00:27:52;;;;;;;12.20;7.63;;;7.40;99.90;;;;;;4966482;28;20489;-63
2023/12/12 00:30:20;;;;;;;11.57;7.20;;;7.30;99.90;;;;;;4969216;28;20512;-64
2023/12/12 00:32:48;;;;;;;12.47;7.90;;;7.20;99.90;;;;;;4967570;28;20566;-64
2023/12/12 00:35:18;;;;;;;12.50;8.90;;;7.20;99.90;;;;;;4964793;28;21151;-62
2023/12/12 00:37:46;;;;;;;13.40;8.57;;;7.10;99.90;;;;;;4968651;28;20536;-64
2023/12/12 00:40:14;;;;;;;13.90;8.10;;;7.10;99.90;;;;;;4964449;28;20474;-63
2023/12/12 00:42:42;;;;;;;15.23;9.17;;;7.00;99.90;;;;;;4962597;28;20479;-64
2023/12/12 00:45:11;;;;;;;14.90;9.10;;;7.00;99.90;;;;;;4964082;28;20522;-64
2023/12/12 00:47:39;;;;;;;15.73;10.13;;;7.00;99.90;;;;;;4969051;28;20548;-63
2023/12/12 00:50:08;;;;;;;11.70;8.70;;;7.00;99.90;;;;;;4965057;28;20504;-62
2023/12/12 00:52:38;;;;;;;14.50;9.23;;;7.00;99.90;;;;;;4963239;28;24466;-63
2023/12/12 00:55:06;;;;;;;15.77;9.67;;;7.00;99.90;;;;;;4962816;28;20577;-64
2023/12/12 00:57:34;;;;;;;15.53;10.30;;;7.00;99.90;;;;;;4967364;28;20517;-65
2023/12/12 01:00:03;;;;;;;16.47;10.60;;;7.00;99.90;;;;;;4964892;28;20594;-65
2023/12/12 01:02:31;;;;;;;14.73;9.27;;;6.90;99.90;;;;;;4964511;28;20979;-65
2023/12/12 01:04:59;;;;;;;15.03;9.40;;;6.90;99.90;;;;;;4958628;28;20589;-64
2023/12/12 01:07:27;;;;;;;17.30;10.37;;;6.90;99.90;;;;;;4966534;28;20470;-64
2023/12/12 01:09:57;;;;;;;17.37;9.07;;;6.90;99.90;;;;;;4967169;28;20525;-64
2023/12/12 01:12:26;;;;;;;17.37;10.17;;;6.90;99.90;;;;;;4967661;28;20470;-64
2023/12/12 01:14:58;;;;;;;15.17;9.03;;;6.90;99.90;;;;;;4963186;28;20603;-62
2023/12/12 01:17:26;;;;;;;17.70;9.60;;;6.80;99.90;;;;;;4965393;28;20474;-64
2023/12/12 01:19:54;;;;;;;17.77;9.70;;;6.80;99.90;;;;;;4967586;28;20462;-64
2023/12/12 01:22:23;;;;;;;15.63;8.60;;;6.80;99.90;;;;;;4967547;28;20474;-64
2023/12/12 01:24:51;;;;;;;13.67;7.97;;;6.80;99.90;;;;;;4963734;28;20998;-64
2023/12/12 01:27:20;;;;;;;16.40;8.37;;;6.80;99.90;;;;;;4966167;28;20916;-65
2023/12/12 01:29:48;;;;;;;13.20;7.50;;;6.80;99.90;;;;;;4967941;28;20638;-64
2023/12/12 01:32:16;;;;;;;13.97;8.20;;;6.70;99.90;;;;;;4965953;28;20482;-64
2023/12/12 01:34:44;;;;;;;12.03;7.90;;;6.70;99.90;;;;;;4967219;28;20474;-63
2023/12/12 01:37:12;;;;;;;16.63;8.43;;;6.70;99.90;;;;;;4965321;28;20466;-64
2023/12/12 01:39:40;;;;;;;14.60;8.40;;;6.70;99.90;;;;;;4962204;28;20867;-64
2023/12/12 01:42:08;;;;;;;11.57;7.27;;;6.70;99.90;;;;;;4964748;28;20577;-64
2023/12/12 01:44:38;;;;;;;17.90;9.17;;;6.70;99.90;;;;;;4965516;28;20581;-64
2023/12/12 01:47:06;;;;;;;15.00;8.50;;;6.70;99.90;;;;;;4966929;28;20571;-64
2023/12/12 01:49:34;;;;;;;13.20;8.20;;;6.70;99.90;;;;;;4963183;28;21548;-64
2023/12/12 01:52:02;;;;;;;16.83;8.10;;;6.70;99.90;;;;;;4964824;28;20845;-64
2023/12/12 01:54:31;;;;;;;16.60;8.30;;;6.70;99.90;;;;;;4955849;28;20508;-63
2023/12/12 01:56:59;;;;;;;14.47;8.23;;;6.60;99.90;;;;;;4964722;28;20882;-64
2023/12/12 01:59:27;;;;;;;15.43;8.73;;;6.60;99.90;;;;;;4964591;28;20840;-64
2023/12/12 02:01:57;;;;;;;14.83;8.23;;;6.60;99.90;;;;;;4965835;28;20486;-64
2023/12/12 02:04:25;;;;;;;21.60;8.43;;;6.60;99.90;;;;;;4963269;28;20494;-64
2023/12/12 02:06:56;;;;;;;20.30;9.07;;;6.60;99.90;;;;;;4964440;28;20474;-64
2023/12/12 02:09:25;;;;;;;16.83;9.40;;;6.60;99.90;;;;;;4967157;28;21034;-64
2023/12/12 02:11:54;;;;;;;16.90;9.37;;;6.60;99.90;;;;;;4965258;28;20478;-65
2023/12/12 02:14:22;;;;;;;16.60;8.87;;;6.60;99.90;;;;;;4966391;28;20933;-64
2023/12/12 02:16:50;;;;;;;17.57;9.00;;;6.60;99.90;;;;;;4970481;28;20476;-64
2023/12/12 02:19:19;;;;;;;15.67;9.00;;;6.50;99.90;;;;;;4969354;28;20557;-64
2023/12/12 02:21:49;;;;;;;16.87;9.20;;;6.60;99.90;;;;;;4971252;28;20477;-64
2023/12/12 02:24:17;;;;;;;17.33;9.13;;;6.50;99.90;;;;;;4962420;28;20583;-64
2023/12/12 02:26:45;;;;;;;17.00;9.17;;;6.50;99.90;;;;;;4971503;28;20466;-64
2023/12/12 02:29:13;;;;;;;17.87;10.27;;;6.50;99.90;;;;;;4968972;28;20521;-64
2023/12/12 02:31:41;;;;;;;16.47;9.73;;;6.50;99.90;;;;;;4959950;28;20537;-65
2023/12/12 02:34:09;;;;;;;17.23;9.60;;;6.50;99.90;;;;;;4969625;28;21212;-64
2023/12/12 02:36:37;;;;;;;16.03;9.20;;;6.50;99.90;;;;;;4971152;28;20931;-64
2023/12/12 02:39:06;;;;;;;17.77;10.23;;;6.50;99.90;;;;;;4971976;28;20544;-64
2023/12/12 02:41:34;;;;;;;19.57;10.30;;;6.50;99.90;;;;;;4967135;28;20940;-64
2023/12/12 02:44:02;;;;;;;17.73;9.60;;;6.50;99.90;;;;;;4964321;28;20502;-63
2023/12/12 02:46:30;;;;;;;18.83;10.80;;;6.50;99.90;;;;;;4967331;28;20565;-64
2023/12/12 02:48:58;;;;;;;19.17;10.40;;;6.50;99.90;;;;;;4964286;28;20474;-63
2023/12/12 02:51:27;;;;;;;19.80;11.07;;;6.50;99.90;;;;;;4965988;28;20520;-63
2023/12/12 02:53:54;;;;;;;22.80;11.93;;;6.50;99.90;;;;;;4963971;28;20513;-64
2023/12/12 02:56:24;;;;;;;20.17;10.43;;;6.50;99.90;;;;;;4959068;28;21146;-63
2023/12/12 02:58:52;;;;;;;23.97;12.60;;;6.50;99.90;;;;;;4961939;28;21118;-64
2023/12/12 03:01:20;;;;;;;19.13;12.00;;;6.50;99.90;;;;;;4965851;28;21063;-64
2023/12/12 03:03:48;;;;;;;22.73;12.40;;;6.50;99.90;;;;;;4965246;28;20548;-64
2023/12/12 03:06:16;;;;;;;21.17;11.53;;;6.50;99.90;;;;;;4966145;28;20493;-64
2023/12/12 03:08:44;;;;;;;21.20;11.33;;;6.50;99.90;;;;;;4966117;28;20584;-64
2023/12/12 03:11:12;;;;;;;18.87;11.40;;;6.50;99.90;;;;;;4966822;28;20490;-64
2023/12/12 03:13:41;;;;;;;25.20;12.70;;;6.50;99.90;;;;;;4966823;28;20577;-64
2023/12/12 03:16:09;;;;;;;21.47;12.03;;;6.50;99.90;;;;;;4959751;28;20588;-64
2023/12/12 03:18:37;;;;;;;26.20;11.17;;;6.50;99.90;;;;;;4967966;28;20521;-64
2023/12/12 03:21:06;;;;;;;22.80;12.43;;;6.50;99.90;;;;;;4969049;28;20477;-64
2023/12/12 03:23:34;;;;;;;28.63;12.97;;;6.50;99.90;;;;;;4969031;28;20600;-64
2023/12/12 03:26:07;;;;;;;20.90;11.37;;;6.50;99.90;;;;;;4963139;28;20588;-64
2023/12/12 03:28:37;;;;;;;19.20;11.83;;;6.50;99.90;;;;;;4965326;28;20895;-64
2023/12/12 03:31:08;;;;;;;24.90;11.90;;;6.50;99.90;;;;;;4968303;28;20497;-64
2023/12/12 03:33:36;;;;;;;21.07;11.10;;;6.50;99.90;;;;;;4960609;28;20480;-64
2023/12/12 03:36:07;;;;;;;19.50;10.90;;;6.50;99.90;;;;;;4967089;28;20865;-64
2023/12/12 03:38:35;;;;;;;20.70;10.83;;;6.50;99.90;;;;;;4963517;28;20493;-64
2023/12/12 03:41:03;;;;;;;20.30;11.40;;;6.50;99.90;;;;;;4962245;28;20917;-65
2023/12/12 03:43:31;;;;;;;23.47;11.40;;;6.50;99.90;;;;;;4968364;28;20512;-64
2023/12/12 03:45:59;;;;;;;24.63;12.40;;;6.50;99.90;;;;;;4968628;28;20490;-64
2023/12/12 03:48:29;;;;;;;21.87;11.30;;;6.50;99.90;;;;;;4967889;28;20852;-64
2023/12/12 03:50:58;;;;;;;23.10;11.63;;;6.50;99.90;;;;;;4970082;28;20490;-64
2023/12/12 03:53:26;;;;;;;21.50;12.30;;;6.50;99.90;;;;;;4966467;28;20553;-64
2023/12/12 03:55:54;;;;;;;21.00;10.40;;;6.50;99.90;;;;;;4967040;28;20589;-64
2023/12/12 03:58:22;;;;;;;25.27;12.50;;;6.50;99.90;;;;;;4967392;28;20506;-64
2023/12/12 04:00:50;;;;;;;22.73;11.73;;;6.50;99.90;;;;;;4964271;28;20484;-64
2023/12/12 04:03:18;;;;;;;19.80;10.83;;;6.50;99.90;;;;;;4963330;28;20529;-64
2023/12/12 04:05:47;;;;;;;20.37;10.70;;;6.50;99.90;;;;;;4969110;28;20498;-64
2023/12/12 04:08:15;;;;;;;20.40;10.93;;;6.50;99.90;;;;;;4967137;28;20470;-64
2023/12/12 04:10:43;;;;;;;27.53;10.80;;;6.50;99.90;;;;;;4968915;28;21042;-64
2023/12/12 04:13:11;;;;;;;28.60;12.50;;;6.50;99.90;;;;;;4967399;28;20561;-63
2023/12/12 04:15:39;;;;;;;24.80;11.63;;;6.50;99.90;;;;;;4969063;28;20482;-64
2023/12/12 04:18:07;;;;;;;31.00;10.70;;;6.50;99.90;;;;;;4967198;28;20469;-63
2023/12/12 04:20:35;;;;;;;25.63;11.63;;;6.50;99.90;;;;;;4969901;28;20482;-64
2023/12/12 04:23:05;;;;;;;23.97;12.27;;;6.50;99.90;;;;;;4968070;28;20577;-63
2023/12/12 04:25:33;;;;;;;28.73;12.00;;;6.50;99.90;;;;;;4968023;28;20910;-64
2023/12/12 04:28:02;;;;;;;20.60;11.60;;;6.50;99.90;;;;;;4968939;28;20477;-63
2023/12/12 04:30:30;;;;;;;23.43;12.33;;;6.50;99.90;;;;;;4966473;28;20588;-64
2023/12/12 04:32:58;;;;;;;26.70;12.77;;;6.50;99.90;;;;;;4967728;28;20470;-64
2023/12/12 04:35:26;;;;;;;27.53;12.37;;;6.50;99.90;;;;;;4966569;28;20490;-64
2023/12/12 04:37:54;;;;;;;24.53;11.40;;;6.50;99.90;;;;;;4967711;28;20478;-64
2023/12/12 04:40:27;;;;;;;22.80;10.53;;;6.50;99.90;;;;;;4968052;28;21086;-63
2023/12/12 04:42:55;;;;;;;20.17;11.00;;;6.50;99.90;;;;;;4965658;28;20630;-62
2023/12/12 04:45:23;;;;;;;20.83;11.30;;;6.50;99.90;;;;;;4963051;28;20493;-63
2023/12/12 04:47:51;;;;;;;19.97;10.23;;;6.50;99.90;;;;;;4964488;28;20469;-64
2023/12/12 04:50:19;;;;;;;21.77;11.33;;;6.50;99.90;;;;;;4965681;28;20524;-64
2023/12/12 04:52:48;;;;;;;19.60;11.27;;;6.50;99.90;;;;;;4964842;28;20485;-64
2023/12/12 04:55:16;;;;;;;21.80;11.00;;;6.60;99.90;;;;;;4964830;28;20894;-64
2023/12/12 04:57:46;;;;;;;22.57;10.80;;;6.60;99.90;;;;;;4967337;28;20501;-64
2023/12/12 05:00:22;;;;;;;20.80;10.97;;;6.60;99.90;;;;;;5070269;27;20936;-63
2023/12/12 05:02:50;;;;;;;19.60;9.80;;;6.60;99.90;;;;;;5061158;28;20473;-63
2023/12/12 05:05:18;;;;;;;20.10;10.50;;;6.60;99.90;;;;;;5030671;28;21047;-62
2023/12/12 05:07:46;;;;;;;21.53;10.60;;;6.60;99.90;;;;;;5020753;28;20758;-63
2023/12/12 05:10:14;;;;;;;21.67;11.53;;;6.60;99.90;;;;;;5021605;28;20554;-62
2023/12/12 05:12:42;;;;;;;19.00;11.57;;;6.60;99.90;;;;;;5021470;28;20471;-62
2023/12/12 05:15:10;;;;;;;20.43;10.60;;;6.60;99.90;;;;;;5021786;28;20565;-62
2023/12/12 05:17:40;;;;;;;17.60;9.00;;;6.60;99.90;;;;;;5021486;28;20921;-63
2023/12/12 05:20:11;;;;;;;15.87;9.33;;;6.50;99.90;;;;;;5020548;28;20557;-62
2023/12/12 05:22:39;;;;;;;20.37;10.20;;;6.60;99.90;;;;;;5019212;28;20557;-62
2023/12/12 05:25:08;;;;;;;22.93;11.47;;;6.60;99.90;;;;;;5017955;28;20537;-63
2023/12/12 05:27:36;;;;;;;18.60;10.10;;;6.50;99.90;;;;;;5022385;28;21196;-62
2023/12/12 05:30:05;;;;;;;19.40;9.57;;;6.50;99.90;;;;;;5018267;28;20507;-63
2023/12/12 05:32:33;;;;;;;18.33;10.00;;;6.60;99.90;;;;;;5020488;28;20467;-61
2023/12/12 05:35:02;;;;;;;20.40;10.20;;;6.50;99.90;;;;;;5014123;28;20514;-62
2023/12/12 05:37:30;;;;;;;22.10;10.60;;;6.50;99.90;;;;;;5019149;28;20471;-63
2023/12/12 05:39:59;;;;;;;19.67;10.23;;;6.50;99.90;;;;;;5018119;28;20497;-62
2023/12/12 05:42:26;;;;;;;17.70;10.20;;;6.50;99.90;;;;;;5020856;28;20494;-62
2023/12/12 05:44:54;;;;;;;19.47;9.63;;;6.50;99.90;;;;;;5018647;28;21029;-63
2023/12/12 05:47:22;;;;;;;22.90;10.43;;;6.50;99.90;;;;;;5019810;28;20807;-63
2023/12/12 05:49:50;;;;;;;21.57;10.57;;;6.50;99.90;;;;;;5018488;28;20464;-65
2023/12/12 05:52:19;;;;;;;20.50;10.03;;;6.50;99.90;;;;;;5013310;28;20483;-63
2023/12/12 05:54:47;;;;;;;27.30;12.00;;;6.60;99.90;;;;;;5015261;28;20492;-63
2023/12/12 05:57:16;;;;;;;18.90;9.80;;;6.60;99.90;;;;;;5021638;28;20469;-62
2023/12/12 05:59:44;;;;;;;19.27;9.97;;;6.60;99.90;;;;;;5020055;28;20538;-62
2023/12/12 06:02:12;;;;;;;23.47;11.40;;;6.60;99.90;;;;;;5009465;28;20468;-62
2023/12/12 06:04:40;;;;;;;25.20;10.57;;;6.60;99.90;;;;;;5016432;28;20488;-65
2023/12/12 06:07:08;;;;;;;21.90;10.80;;;6.60;99.90;;;;;;5017926;28;20479;-63
2023/12/12 06:09:38;;;;;;;24.50;10.87;;;6.60;99.90;;;;;;5015260;28;20870;-63
2023/12/12 06:12:07;;;;;;;21.70;10.23;;;6.60;99.90;;;;;;5003435;28;20476;-63
2023/12/12 06:14:36;;;;;;;21.27;10.07;;;6.60;99.90;;;;;;5000609;28;20552;-63
2023/12/12 06:17:05;;;;;;;20.40;10.47;;;6.60;99.90;;;;;;5000785;28;20588;-65
2023/12/12 06:19:34;;;;;;;20.10;11.07;;;6.60;99.90;;;;;;4992716;28;21016;-64
2023/12/12 06:22:03;;;;;;;18.47;9.13;;;6.60;99.90;;;;;;5002648;28;20555;-64
2023/12/12 06:24:34;;;;;;;19.00;9.83;;;6.60;99.90;;;;;;5001659;28;20491;-65
2023/12/12 06:27:04;;;;;;;20.27;10.80;;;6.60;99.90;;;;;;5002994;28;20468;-63
2023/12/12 06:29:32;;;;;;;19.67;10.07;;;6.60;99.90;;;;;;5004435;28;20552;-63
2023/12/12 06:32:00;;;;;;;20.73;11.70;;;6.60;99.90;;;;;;4998189;28;20472;-63
2023/12/12 06:34:28;;;;;;;24.90;11.33;;;6.60;99.90;;;;;;4999395;28;20996;-63
2023/12/12 06:36:56;;;;;;;20.30;10.13;;;6.60;99.90;;;;;;5003263;28;20933;-63
2023/12/12 06:39:25;;;;;;;22.57;11.10;;;6.60;99.90;;;;;;5007667;28;20491;-64
2023/12/12 06:41:53;;;;;;;24.43;11.90;;;6.60;99.90;;;;;;5005684;28;20885;-63
2023/12/12 06:44:22;;;;;;;23.13;12.60;;;6.60;99.90;;;;;;5003356;28;20488;-63
2023/12/12 06:46:50;;;;;;;25.90;11.93;;;6.60;99.90;;;;;;5006216;28;20567;-63
2023/12/12 06:49:18;;;;;;;21.67;11.47;;;6.60;99.90;;;;;;5004840;28;20472;-63
2023/12/12 06:51:46;;;;;;;21.57;10.67;;;6.60;99.90;;;;;;5004813;28;20483;-63
2023/12/12 06:54:14;;;;;;;22.97;12.33;;;6.60;99.90;;;;;;5005491;28;20583;-63
2023/12/12 06:56:42;;;;;;;20.50;10.80;;;6.60;99.90;;;;;;5007585;28;20476;-63
2023/12/12 06:59:10;;;;;;;18.60;10.10;;;6.60;99.90;;;;;;5005420;28;20909;-62
2023/12/12 07:01:40;;;;;;;22.27;12.13;;;6.60;99.90;;;;;;5002780;28;20579;-64
2023/12/12 07:04:08;;;;;;;23.43;11.20;;;6.60;99.90;;;;;;5002891;28;20996;-63
2023/12/12 07:06:37;;;;;;;25.50;11.77;;;6.60;99.90;;;;;;5003047;28;20503;-63
2023/12/12 07:09:05;;;;;;;23.23;12.43;;;6.60;99.90;;;;;;5005296;28;20480;-64
2023/12/12 07:11:33;;;;;;;21.37;10.67;;;6.60;99.90;;;;;;5006441;28;20472;-62
2023/12/12 07:14:01;;;;;;;26.40;12.60;;;6.60;99.90;;;;;;4999062;28;20516;-62
2023/12/12 07:16:30;;;;;;;21.63;11.43;;;6.60;99.90;;;;;;5006966;28;20559;-64
2023/12/12 07:18:59;;;;;;;25.57;12.03;;;6.60;99.90;;;;;;5004226;28;20464;-62
2023/12/12 07:21:27;;;;;;;25.53;12.00;;;6.60;99.90;;;;;;5006009;28;20584;-64
2023/12/12 07:23:55;;;;;;;23.80;11.73;;;6.60;99.90;;;;;;5003715;28;20559;-63
2023/12/12 07:26:24;;;;;;;24.07;12.03;;;6.60;99.90;;;;;;5006256;28;20495;-63
2023/12/12 07:28:52;;;;;;;24.87;11.43;;;6.60;99.90;;;;;;5004448;28;20511;-63
2023/12/12 07:31:20;;;;;;;20.93;11.00;;;6.60;99.90;;;;;;5005836;28;20546;-63
2023/12/12 07:33:48;;;;;;;22.33;12.17;;;6.60;99.90;;;;;;5003521;28;20658;-63
2023/12/12 07:36:18;;;;;;;31.73;13.87;;;6.70;99.90;;;;;;5004249;28;20496;-64
2023/12/12 07:38:46;;;;;;;25.63;12.20;;;6.70;99.90;;;;;;5006173;28;20923;-63
2023/12/12 07:41:15;;;;;;;23.10;12.97;;;6.70;99.90;;;;;;5005929;28;20581;-64
2023/12/12 07:43:43;;;;;;;21.43;11.57;;;6.70;99.90;;;;;;5003952;28;20579;-63
2023/12/12 07:46:11;;;;;;;19.37;10.80;;;6.70;99.90;;;;;;5005799;28;20543;-64
2023/12/12 07:48:39;;;;;;;22.17;11.50;;;6.70;99.90;;;;;;5004088;28;20905;-63
2023/12/12 07:51:07;;;;;;;22.40;11.03;;;6.70;99.90;;;;;;5005845;28;20543;-63
2023/12/12 07:53:37;;;;;;;23.80;12.03;;;6.70;99.90;;;;;;5003303;28;21086;-64
2023/12/12 07:56:06;;;;;;;21.13;12.53;;;6.70;99.90;;;;;;5007422;28;20496;-63
2023/12/12 07:58:34;;;;;;;28.77;14.10;;;6.60;99.90;;;;;;5005528;28;20843;-63
2023/12/12 08:01:03;;;;;;;25.93;13.17;;;6.60;99.90;;;;;;5003040;28;20492;-63
2023/12/12 08:03:31;;;;;;;27.77;14.87;;;6.60;99.90;;;;;;4995735;28;20491;-63
2023/12/12 08:06:00;;;;;;;25.87;12.80;;;6.60;99.90;;;;;;5005621;28;20484;-63
2023/12/12 08:08:31;;;;;;;29.70;15.03;;;6.60;99.90;;;;;;5004679;28;20480;-63
2023/12/12 08:11:01;;;;;;;25.73;12.53;;;6.60;99.90;;;;;;5002960;28;20456;-64
2023/12/12 08:13:30;;;;;;;31.20;14.80;;;6.60;99.90;;;;;;5003789;28;20855;-64
2023/12/12 08:15:58;;;;;;;24.37;12.27;;;6.60;99.90;;;;;;5005054;28;20492;-62
2023/12/12 08:18:26;;;;;;;29.13;13.77;;;6.60;99.90;;;;;;5005453;28;20464;-63
2023/12/12 08:20:54;;;;;;;27.57;13.23;;;6.60;99.90;;;;;;4999632;28;20618;-63
2023/12/12 08:23:22;;;;;;;28.57;14.10;;;6.60;99.90;;;;;;5005092;28;20605;-63
2023/12/12 08:25:50;;;;;;;29.80;13.60;;;6.60;99.90;;;;;;5003975;28;20902;-63
2023/12/12 08:28:20;;;;;;;23.73;11.50;;;6.60;99.90;;;;;;4999977;28;20557;-63
2023/12/12 08:30:48;;;;;;;21.30;10.37;;;6.70;99.90;;;;;;5002795;28;20528;-63
2023/12/12 08:33:16;;;;;;;23.63;12.47;;;6.70;99.90;;;;;;5003761;28;20884;-65
2023/12/12 08:35:44;;;;;;;23.70;12.13;;;6.70;99.90;;;;;;5002360;28;20927;-62
2023/12/12 08:38:12;;;;;;;19.20;11.47;;;6.60;99.90;;;;;;5003834;28;20480;-62
2023/12/12 08:40:40;;;;;;;20.13;11.10;;;6.60;99.90;;;;;;5004853;28;20636;-63
2023/12/12 08:43:09;;;;;;;20.33;11.00;;;6.70;99.90;;;;;;5004088;28;20472;-63
2023/12/12 08:45:38;;;;;;;22.27;10.47;;;6.70;99.90;;;;;;5006021;28;20545;-63
2023/12/12 08:48:07;;;;;;;22.70;10.80;;;6.60;99.90;;;;;;5002775;28;20968;-63
2023/12/12 08:50:35;;;;;;;18.47;10.23;;;6.60;99.90;;;;;;5000951;28;20889;-63
2023/12/12 08:53:03;;;;;;;19.47;10.13;;;6.70;99.90;;;;;;5003552;28;20500;-63
2023/12/12 08:55:31;;;;;;;21.50;11.43;;;6.70;99.90;;;;;;5005212;28;20587;-62
2023/12/12 08:57:59;;;;;;;22.07;11.37;;;6.70;99.90;;;;;;5004123;28;20578;-63
2023/12/12 09:00:27;;;;;;;18.93;9.83;;;6.70;99.90;;;;;;5003324;28;20523;-63
2023/12/12 09:02:57;;;;;;;15.93;10.60;;;6.70;99.90;;;;;;5003449;28;20476;-63
2023/12/12 09:05:25;;;;;;;17.77;10.03;;;6.70;99.90;;;;;;5006015;28;21314;-62
2023/12/12 09:07:53;;;;;;;18.73;10.87;;;6.70;99.90;;;;;;5003850;28;20472;-63
2023/12/12 09:10:21;;;;;;;20.63;10.27;;;6.70;99.90;;;;;;5005496;28;20511;-63
2023/12/12 09:12:49;;;;;;;21.03;10.57;;;6.70;99.90;;;;;;5006317;28;20476;-63
2023/12/12 09:15:17;;;;;;;19.43;10.83;;;6.70;99.90;;;;;;5000280;28;20629;-63
2023/12/12 09:17:45;;;;;;;21.57;11.27;;;6.70;99.90;;;;;;5003762;28;20939;-63
2023/12/12 09:20:34;;;;;;;17.90;9.97;;;6.70;99.90;;;;;;4999914;28;20858;-64
2023/12/12 09:23:02;;;;;;;21.10;10.27;;;6.70;99.90;;;;;;5002898;28;20972;-63
2023/12/12 09:25:30;;;;;;;17.10;10.20;;;6.70;99.90;;;;;;5005328;28;20492;-63
2023/12/12 09:27:58;;;;;;;17.60;10.20;;;6.70;99.90;;;;;;5003504;28;20483;-63
2023/12/12 09:30:27;;;;;;;18.57;10.40;;;6.80;99.90;;;;;;5005047;28;20476;-63
2023/12/12 09:32:55;;;;;;;22.20;11.63;;;6.80;99.90;;;;;;5003811;28;20475;-63
2023/12/12 09:35:24;;;;;;;20.80;10.70;;;6.80;99.90;;;;;;5004456;28;20579;-63
2023/12/12 09:37:53;;;;;;;19.20;9.90;;;6.80;99.90;;;;;;5003925;28;20965;-64
2023/12/12 09:40:21;;;;;;;23.80;11.20;;;6.80;99.90;;;;;;5005033;28;20539;-63
2023/12/12 09:42:50;;;;;;;22.40;10.73;;;6.80;99.90;;;;;;5003545;28;20490;-63
2023/12/12 09:45:18;;;;;;;21.37;12.13;;;6.80;99.90;;;;;;5002320;28;20574;-63
2023/12/12 09:47:47;;;;;;;19.87;9.37;;;6.80;99.90;;;;;;5007344;28;20909;-62
2023/12/12 09:50:16;;;;;;;19.97;10.27;;;6.80;99.90;;;;;;5006833;28;20575;-62
2023/12/12 09:52:47;;;;;;;17.90;9.80;;;6.80;99.90;;;;;;5007790;28;20477;-63
2023/12/12 09:55:19;;;;;;;17.73;10.17;;;6.80;99.90;;;;;;5005966;28;20578;-63
2023/12/12 09:57:47;;;;;;;16.97;9.80;;;6.80;99.90;;;;;;5008015;28;20476;-63
2023/12/12 10:00:16;;;;;;;18.20;9.03;;;6.80;99.90;;;;;;5007371;28;20549;-63
2023/12/12 10:02:44;;;;;;;13.20;8.73;;;6.80;99.90;;;;;;5005875;28;20860;-63
2023/12/12 10:05:14;;;;;;;17.90;10.47;;;6.80;99.90;;;;;;5005897;28;20515;-63
2023/12/12 10:07:45;;;;;;;14.97;9.13;;;6.80;99.90;;;;;;5007975;28;20479;-63
2023/12/12 10:10:25;;;;;;;17.80;9.60;;;6.90;99.90;;;;;;5007493;28;20555;-63
2023/12/12 10:12:53;;;;;;;15.80;9.33;;;6.90;99.90;;;;;;5004121;28;21824;-64
2023/12/12 10:15:23;;;;;;;18.97;9.43;;;6.90;99.90;;;;;;5004466;28;20597;-63
2023/12/12 10:17:56;;;;;;;18.33;9.40;;;6.90;99.90;;;;;;5007012;28;20495;-63
2023/12/12 10:20:26;;;;;;;15.70;9.87;;;6.90;99.90;;;;;;5008717;28;20472;-63
2023/12/12 10:22:57;;;;;;;17.50;10.03;;;7.00;99.90;;;;;;5006433;28;20488;-63
2023/12/12 10:25:28;;;;;;;14.73;9.70;;;7.00;99.90;;;;;;5006683;28;20488;-63
2023/12/12 10:27:57;;;;;;;16.63;9.90;;;7.00;99.90;;;;;;5007140;28;20492;-63
2023/12/12 10:30:26;;;;;;;17.53;11.13;;;7.10;99.90;;;;;;5006243;28;20841;-64
2023/12/12 10:32:56;;;;;;;18.47;9.90;;;7.10;99.90;;;;;;5005767;28;20550;-63
2023/12/12 10:35:28;;;;;;;17.07;10.63;;;7.10;99.90;;;;;;5008256;28;20574;-62
2023/12/12 10:37:56;;;;;;;19.00;10.33;;;7.10;99.90;;;;;;5005889;28;20480;-63
2023/12/12 10:40:26;;;;;;;16.43;9.20;;;7.10;99.90;;;;;;5005894;28;20464;-63
2023/12/12 10:42:56;;;;;;;15.40;9.43;;;7.20;99.90;;;;;;5004962;28;20492;-63
2023/12/12 10:45:27;;;;;;;18.77;10.53;;;7.20;99.90;;;;;;5005817;28;20796;-64
2023/12/12 10:47:58;;;;;;;16.87;11.37;;;7.30;99.90;;;;;;4999527;28;20552;-63
2023/12/12 10:50:30;;;;;;;14.97;9.80;;;7.40;99.90;;;;;;5005957;28;20500;-63
2023/12/12 10:52:59;;;;;;;20.60;11.23;;;7.30;99.90;;;;;;5008379;28;20468;-63
2023/12/12 10:55:29;;;;;;;19.03;10.83;;;7.30;99.90;;;;;;5004504;28;20492;-63
2023/12/12 10:57:59;;;;;;;18.20;10.90;;;7.40;99.90;;;;;;5007921;28;20534;-62
2023/12/12 11:00:28;;;;;;;18.77;10.63;;;7.40;99.90;;;;;;5005820;28;20580;-63
2023/12/12 11:03:00;;;;;;;16.10;9.93;;;7.40;99.90;;;;;;5006026;28;20546;-62
2023/12/12 11:05:29;;;;;;;19.20;11.03;;;7.40;99.90;;;;;;5005425;28;20581;-64
2023/12/12 11:07:58;;;;;;;16.30;10.97;;;7.30;99.90;;;;;;5005051;28;20534;-63
2023/12/12 11:10:27;;;;;;;15.90;10.93;;;7.30;99.90;;;;;;5005703;28;20526;-63
2023/12/12 11:12:59;;;;;;;17.70;11.10;;;7.30;99.90;;;;;;5006984;28;20471;-63
2023/12/12 11:15:29;;;;;;;18.27;11.30;;;7.30;99.90;;;;;;5001487;28;20496;-66
2023/12/12 11:17:58;;;;;;;16.07;11.00;;;7.20;99.90;;;;;;5002785;28;20471;-63
2023/12/12 11:20:26;;;;;;;18.80;11.87;;;7.20;99.90;;;;;;5006806;28;20526;-63
2023/12/12 11:22:55;;;;;;;17.60;11.07;;;7.20;99.90;;;;;;5008030;28;20501;-63
2023/12/12 11:25:28;;;;;;;15.63;10.77;;;7.20;99.90;;;;;;5003907;28;20491;-63
2023/12/12 11:27:59;;;;;;;18.70;12.30;;;7.20;99.90;;;;;;5006653;28;20520;-63
2023/12/12 11:30:31;;;;;;;16.80;11.07;;;7.10;99.90;;;;;;5004102;28;20564;-63
2023/12/12 11:33:00;;;;;;;16.40;10.60;;;7.10;99.90;;;;;;5005878;28;20468;-63
2023/12/12 11:35:30;;;;;;;15.60;10.20;;;7.10;99.90;;;;;;5002706;28;20524;-63
2023/12/12 11:38:00;;;;;;;18.07;10.80;;;7.10;99.90;;;;;;5003550;28;20476;-63
2023/12/12 11:40:30;;;;;;;17.20;10.80;;;7.10;99.90;;;;;;5004139;28;21028;-63
2023/12/12 11:43:02;;;;;;;15.83;10.13;;;7.10;99.90;;;;;;5003875;28;20496;-63
2023/12/12 11:45:32;;;;;;;16.43;10.10;;;7.10;99.90;;;;;;5002423;28;20480;-63
2023/12/12 11:48:01;;;;;;;14.00;9.73;;;7.10;99.90;;;;;;5004523;28;20534;-63
2023/12/12 11:50:33;;;;;;;15.03;10.30;;;7.00;99.90;;;;;;5006114;28;20473;-63
2023/12/12 11:53:04;;;;;;;12.90;9.50;;;7.00;99.90;;;;;;5005457;28;20468;-63
2023/12/12 11:55:35;;;;;;;15.40;9.67;;;7.10;99.90;;;;;;5004430;28;22311;-63
2023/12/12 11:58:06;;;;;;;13.03;8.40;;;7.00;99.90;;;;;;5003637;28;21011;-63
2023/12/12 12:00:35;;;;;;;13.00;8.00;;;7.00;99.90;;;;;;5007035;28;20468;-62
2023/12/12 12:03:05;;;;;;;13.73;9.50;;;7.10;99.90;;;;;;5003338;28;20935;-63
2023/12/12 12:05:33;;;;;;;14.97;9.07;;;7.10;99.90;;;;;;5006152;28;21009;-63
2023/12/12 12:08:02;;;;;;;13.83;9.60;;;7.10;99.90;;;;;;5001471;28;20480;-62
2023/12/12 12:10:30;;;;;;;17.00;12.20;;;7.10;99.90;;;;;;5001056;28;20876;-63
2023/12/12 12:13:00;;;;;;;17.00;11.87;;;7.10;99.90;;;;;;5002807;28;20904;-62
2023/12/12 12:15:30;;;;;;;18.17;12.17;;;7.10;99.90;;;;;;5001465;28;20853;-64
2023/12/12 12:17:58;;;;;;;17.67;12.43;;;7.10;99.90;;;;;;5004720;28;20500;-63
2023/12/12 12:20:27;;;;;;;15.87;10.77;;;7.10;99.90;;;;;;5001685;28;20578;-63
2023/12/12 12:22:55;;;;;;;15.80;10.67;;;7.20;99.90;;;;;;5004342;28;20488;-63
2023/12/12 12:25:26;;;;;;;16.07;10.23;;;7.20;99.90;;;;;;4995682;28;20766;-63
2023/12/12 12:27:56;;;;;;;21.60;13.33;;;7.10;99.90;;;;;;5003068;28;20464;-63
2023/12/12 12:30:25;;;;;;;20.97;14.43;;;7.20;99.90;;;;;;5004407;28;20947;-64
2023/12/12 12:33:03;;;;;;;25.20;16.57;;;7.20;99.90;;;;;;5005806;28;20948;-64
2023/12/12 12:35:32;;;;;;;22.80;14.77;;;7.20;99.90;;;;;;5002572;28;20496;-63
2023/12/12 12:38:00;;;;;;;23.20;13.30;;;7.20;99.90;;;;;;5002548;28;20474;-63
2023/12/12 12:40:32;;;;;;;20.90;13.07;;;7.20;99.90;;;;;;5002609;28;20839;-63
2023/12/12 12:43:04;;;;;;;19.37;12.73;;;7.20;99.90;;;;;;5002643;28;20492;-63
2023/12/12 12:45:33;;;;;;;17.00;12.07;;;7.20;99.90;;;;;;4999755;28;20495;-63
2023/12/12 12:48:05;;;;;;;14.20;10.67;;;7.10;99.90;;;;;;5001143;28;20936;-64